Terminal Aerodrome Forecast
Issued by NWS

Home | Current Version | Previous Version | Text Only | Print | Product List | Glossary On
Versions: 1 2 3 4 5 6 7 8 9 10 11 12 13 14 15
000
FTUS41 KPHI 191700 RRA
TAFMIV
TAF
KMIV 191745Z 1918/2018 09012KT P6SM SCT035 SCT060
     FM200600 10005KT P6SM BKN025
     FM201100 12005KT P6SM OVC015
     FM201400 15007KT P6SM OVC025
     FM201600 17011KT P6SM BKN035=

USA.gov is the U.S. government's official web portal to all federal, state and local government web resources and services.